createdAt,value
2023-03-06T00:02:25.853Z,34.35
2023-03-06T00:04:53.438Z,26.20
2023-03-06T00:07:20.976Z,25.58
2023-03-06T00:09:48.559Z,25.50
2023-03-06T00:12:16.099Z,29.90
2023-03-06T00:14:43.604Z,37.47
2023-03-06T00:17:11.141Z,28.55
2023-03-06T00:19:38.682Z,26.05
2023-03-06T00:22:06.265Z,24.98
2023-03-06T00:24:33.775Z,32.97
2023-03-06T00:27:01.296Z,26.60
2023-03-06T00:29:29.048Z,26.00
2023-03-06T00:31:56.648Z,26.20
2023-03-06T00:34:24.300Z,28.00
2023-03-06T00:36:51.834Z,26.25
2023-03-06T00:39:19.357Z,26.17
2023-03-06T00:41:47.207Z,31.52
2023-03-06T00:44:14.724Z,27.08
2023-03-06T00:46:42.304Z,20.83
2023-03-06T00:49:09.878Z,24.00
2023-03-06T00:51:37.446Z,31.85
2023-03-06T00:54:04.993Z,35.47
2023-03-06T00:56:32.496Z,19.48
2023-03-06T00:59:00.033Z,26.73
2023-03-06T01:01:27.628Z,31.15
2023-03-06T01:03:55.141Z,29.23
2023-03-06T01:06:22.653Z,22.63
2023-03-06T01:08:50.179Z,28.17
2023-03-06T01:11:18.300Z,26.88
2023-03-06T01:13:46.151Z,25.52
2023-03-06T01:16:14.633Z,24.88
2023-03-06T01:18:42.234Z,28.83
2023-03-06T01:21:09.791Z,30.63
2023-03-06T01:23:37.319Z,28.65
2023-03-06T01:26:04.941Z,26.73
2023-03-06T01:28:34.006Z,26.67
2023-03-06T01:31:03.216Z,29.35
2023-03-06T01:33:30.827Z,25.98
2023-03-06T01:35:58.339Z,23.42
2023-03-06T01:38:25.860Z,24.30
2023-03-06T01:40:53.376Z,28.67
2023-03-06T01:43:27.144Z,22.15
2023-03-06T01:46:13.957Z,25.02
2023-03-06T01:48:41.513Z,28.33
2023-03-06T01:51:09.030Z,27.88
2023-03-06T01:53:36.542Z,25.02
2023-03-06T01:56:04.146Z,21.17
2023-03-06T01:58:31.664Z,27.00
2023-03-06T02:00:59.256Z,24.80
2023-03-06T02:03:27.340Z,18.48
2023-03-06T02:05:54.861Z,26.75
2023-03-06T02:08:22.642Z,26.15
2023-03-06T02:11:02.573Z,22.63
2023-03-06T02:13:30.561Z,24.85
2023-03-06T02:15:58.108Z,25.15
2023-03-06T02:18:25.926Z,23.95
2023-03-06T02:20:53.932Z,22.83
2023-03-06T02:23:42.415Z,22.42
2023-03-06T02:26:10.300Z,27.67
2023-03-06T02:28:39.751Z,23.42
2023-03-06T02:31:07.682Z,29.38
2023-03-06T02:33:35.334Z,23.00
2023-03-06T02:36:03.745Z,26.75
2023-03-06T02:38:38.017Z,24.05
2023-03-06T02:41:06.800Z,23.77
2023-03-06T02:43:35.257Z,25.85
2023-03-06T02:46:03.193Z,20.95
2023-03-06T02:48:30.757Z,16.90
2023-03-06T02:50:58.307Z,25.80
2023-03-06T02:53:26.789Z,27.85
2023-03-06T02:55:54.310Z,21.25
2023-03-06T02:58:21.931Z,18.50
2023-03-06T03:00:50.044Z,27.15
2023-03-06T03:03:18.231Z,21.25
2023-03-06T03:05:45.764Z,26.23
2023-03-06T03:08:23.024Z,21.80
2023-03-06T03:10:53.700Z,25.17
2023-03-06T03:13:21.286Z,21.55
2023-03-06T03:16:00.263Z,30.38
2023-03-06T03:18:28.015Z,22.90
2023-03-06T03:20:55.694Z,26.83
2023-03-06T03:23:23.820Z,20.52
2023-03-06T03:25:51.367Z,23.73
2023-03-06T03:28:18.980Z,25.35
2023-03-06T03:30:46.652Z,29.88
2023-03-06T03:33:14.385Z,28.42
2023-03-06T03:35:43.382Z,26.20
2023-03-06T03:38:10.978Z,30.10
2023-03-06T03:40:39.276Z,20.75
2023-03-06T03:45:34.399Z,34.72
2023-03-06T03:48:02.033Z,32.47
2023-03-06T03:50:30.203Z,31.08
2023-03-06T03:52:58.149Z,23.65
2023-03-06T03:55:25.821Z,28.85
2023-03-06T03:57:53.894Z,32.00
2023-03-06T04:00:21.694Z,29.88
2023-03-06T04:03:01.287Z,23.25
2023-03-06T04:05:41.860Z,29.38
2023-03-06T04:08:10.509Z,28.65
2023-03-06T04:10:42.064Z,29.50
2023-03-06T04:13:10.850Z,28.45
2023-03-06T04:15:42.582Z,26.33
2023-03-06T04:18:11.352Z,22.52
2023-03-06T04:20:39.355Z,22.33
2023-03-06T04:23:06.893Z,24.00
2023-03-06T04:25:34.473Z,27.50
2023-03-06T04:28:04.181Z,29.08
2023-03-06T04:30:32.181Z,30.67
2023-03-06T04:33:00.657Z,29.83
2023-03-06T04:35:28.310Z,25.10
2023-03-06T04:38:01.337Z,23.00
2023-03-06T04:40:31.506Z,25.50
2023-03-06T04:42:59.541Z,25.35
2023-03-06T04:45:27.431Z,30.17
2023-03-06T04:47:55.109Z,39.58
2023-03-06T04:50:22.825Z,30.30
2023-03-06T04:52:50.502Z,26.60
2023-03-06T04:55:18.087Z,19.08
2023-03-06T04:57:45.930Z,27.58
2023-03-06T05:00:17.782Z,23.17
2023-03-06T05:02:45.442Z,26.83
2023-03-06T05:05:13.034Z,24.52
2023-03-06T05:07:40.864Z,21.15
2023-03-06T05:10:10.795Z,21.60
2023-03-06T05:12:39.254Z,22.23
2023-03-06T05:15:07.180Z,26.45
2023-03-06T05:17:34.732Z,35.33
2023-03-06T05:20:02.318Z,24.92
2023-03-06T05:22:29.820Z,29.55
2023-03-06T05:24:57.365Z,25.30
2023-03-06T05:27:24.930Z,28.75
2023-03-06T05:29:52.474Z,25.13
2023-03-06T05:32:20.063Z,32.13
2023-03-06T05:34:47.969Z,24.75
2023-03-06T05:37:15.740Z,27.48
2023-03-06T05:39:43.409Z,28.13
2023-03-06T05:42:11.038Z,25.30
2023-03-06T05:44:38.617Z,35.13
2023-03-06T05:47:06.199Z,30.15
2023-03-06T05:49:34.349Z,26.83
2023-03-06T05:52:03.909Z,37.83
2023-03-06T05:54:31.970Z,24.38
2023-03-06T05:56:59.569Z,25.17
2023-03-06T05:59:28.436Z,30.42
2023-03-06T06:01:56.333Z,26.60
2023-03-06T06:04:24.194Z,29.77
2023-03-06T06:06:52.652Z,28.17
2023-03-06T06:09:21.066Z,23.02
2023-03-06T06:11:51.124Z,24.33
2023-03-06T06:14:18.659Z,27.23
2023-03-06T06:16:46.201Z,23.90
2023-03-06T06:19:20.256Z,25.95
2023-03-06T06:21:48.615Z,30.90
2023-03-06T06:24:16.463Z,44.95
2023-03-06T06:26:44.117Z,34.92
2023-03-06T06:29:11.870Z,31.85
2023-03-06T06:31:39.488Z,30.50
2023-03-06T06:34:07.187Z,18.33
2023-03-06T06:36:34.846Z,29.73
2023-03-06T06:39:02.546Z,26.33
2023-03-06T06:41:50.614Z,19.27
2023-03-06T06:44:17.836Z,30.90
2023-03-06T06:49:33.090Z,34.08
2023-03-06T06:52:00.696Z,25.40
2023-03-06T06:54:28.298Z,27.55
2023-03-06T06:56:55.852Z,35.45
2023-03-06T06:59:23.769Z,24.95
2023-03-06T07:01:52.081Z,31.35
2023-03-06T07:06:47.169Z,28.92
2023-03-06T07:09:14.711Z,34.60
2023-03-06T07:11:42.287Z,30.38
2023-03-06T07:14:09.846Z,42.85
2023-03-06T07:16:37.488Z,21.02
2023-03-06T07:19:05.009Z,28.35
2023-03-06T07:21:32.600Z,36.53
2023-03-06T07:24:01.185Z,25.20
2023-03-06T07:26:28.776Z,26.63
2023-03-06T07:28:56.318Z,33.22
2023-03-06T07:31:24.841Z,27.20
2023-03-06T07:33:52.566Z,24.20
2023-03-06T07:36:20.223Z,29.73
2023-03-06T07:38:47.785Z,30.92
2023-03-06T07:41:16.364Z,20.80
2023-03-06T07:43:44.229Z,25.88
2023-03-06T07:46:13.044Z,33.95
2023-03-06T07:48:40.828Z,32.00
2023-03-06T07:51:09.264Z,35.97
2023-03-06T07:53:36.979Z,26.10
2023-03-06T07:56:09.028Z,26.38
2023-03-06T07:58:37.680Z,27.27
2023-03-06T08:01:09.423Z,24.85
2023-03-06T08:03:37.446Z,24.55
2023-03-06T08:06:15.190Z,26.92
2023-03-06T08:08:43.351Z,23.60
2023-03-06T08:11:11.268Z,32.75
2023-03-06T08:13:38.951Z,28.90
2023-03-06T08:16:06.722Z,23.20
2023-03-06T08:18:34.403Z,28.40
2023-03-06T08:21:03.086Z,31.85
2023-03-06T08:23:30.697Z,31.60
2023-03-06T08:25:59.204Z,32.75
2023-03-06T08:28:26.904Z,31.42
2023-03-06T08:30:54.436Z,32.28
2023-03-06T08:33:22.069Z,35.30
2023-03-06T08:35:49.655Z,29.83
2023-03-06T08:38:17.253Z,33.55
2023-03-06T08:40:45.073Z,28.77
2023-03-06T08:43:14.150Z,36.92
2023-03-06T08:45:41.939Z,29.42
2023-03-06T08:48:09.511Z,32.28
2023-03-06T08:50:37.092Z,37.67
2023-03-06T08:53:04.757Z,29.10
2023-03-06T08:55:32.337Z,28.30
2023-03-06T08:58:00.565Z,30.02
2023-03-06T09:00:28.292Z,30.50
2023-03-06T09:02:55.836Z,27.85
2023-03-06T09:05:23.489Z,28.05
2023-03-06T09:07:50.977Z,17.30
2023-03-06T09:10:19.698Z,26.42
2023-03-06T09:12:51.360Z,31.52
2023-03-06T09:15:20.543Z,23.67
2023-03-06T09:17:48.167Z,31.75
2023-03-06T09:20:15.826Z,29.83
2023-03-06T09:22:43.577Z,26.27
2023-03-06T09:25:13.245Z,27.95
2023-03-06T09:27:41.010Z,28.83
2023-03-06T09:30:08.794Z,24.75
2023-03-06T09:32:36.410Z,27.30
2023-03-06T09:35:04.069Z,25.20
2023-03-06T09:37:31.636Z,26.27
2023-03-06T09:39:59.163Z,24.77
2023-03-06T09:42:26.677Z,29.23
2023-03-06T09:44:55.233Z,27.50
2023-03-06T09:47:29.268Z,27.60
2023-03-06T09:50:06.193Z,28.88
2023-03-06T09:52:35.728Z,27.02
2023-03-06T09:55:03.482Z,27.90
2023-03-06T09:57:35.544Z,30.90
2023-03-06T10:00:07.672Z,23.33
2023-03-06T10:02:47.464Z,27.48
2023-03-06T10:05:22.829Z,21.90
2023-03-06T10:07:51.868Z,23.42
2023-03-06T10:10:20.768Z,27.27
2023-03-06T10:12:50.226Z,23.73
2023-03-06T10:15:19.204Z,27.05
2023-03-06T10:17:46.753Z,28.65
2023-03-06T10:20:24.412Z,24.70
2023-03-06T10:23:05.146Z,28.45
2023-03-06T10:25:32.991Z,30.35
2023-03-06T10:28:03.632Z,20.50
2023-03-06T10:30:50.146Z,20.90
2023-03-06T10:33:20.710Z,24.67
2023-03-06T10:35:51.853Z,30.17
2023-03-06T10:38:19.420Z,20.02
2023-03-06T10:40:52.164Z,26.67
2023-03-06T10:43:19.704Z,25.15
2023-03-06T10:45:51.077Z,27.23
2023-03-06T10:48:19.949Z,28.23
2023-03-06T10:50:47.537Z,20.30
2023-03-06T10:53:21.362Z,28.15
2023-03-06T10:55:52.500Z,20.98
2023-03-06T10:58:24.093Z,28.75
2023-03-06T11:01:11.871Z,27.65
2023-03-06T11:03:39.397Z,19.98
2023-03-06T11:06:12.923Z,18.50
2023-03-06T11:08:41.404Z,25.60
2023-03-06T11:11:10.010Z,23.02
2023-03-06T11:13:38.016Z,21.73
2023-03-06T11:16:05.750Z,18.52
2023-03-06T11:18:40.510Z,21.70
2023-03-06T11:21:24.234Z,24.35
2023-03-06T11:23:51.767Z,26.52
2023-03-06T11:26:27.287Z,16.30
2023-03-06T11:28:54.862Z,20.58
2023-03-06T11:31:26.591Z,21.83
2023-03-06T11:34:12.652Z,26.58
2023-03-06T11:36:56.304Z,21.25
2023-03-06T11:39:30.025Z,24.52
2023-03-06T11:42:00.126Z,26.75
2023-03-06T11:44:46.503Z,21.92
2023-03-06T11:47:14.026Z,21.13
2023-03-06T11:49:45.494Z,23.02
2023-03-06T11:52:21.516Z,29.80
2023-03-06T11:54:50.285Z,24.92
2023-03-06T11:57:26.246Z,27.77
2023-03-06T11:59:54.910Z,28.63
2023-03-06T12:02:26.155Z,28.70
2023-03-06T12:05:12.634Z,23.98
2023-03-06T12:07:47.123Z,26.25
2023-03-06T12:10:14.726Z,23.17
2023-03-06T12:12:48.835Z,28.73
2023-03-06T12:15:22.170Z,27.35
2023-03-06T12:17:52.702Z,25.50
2023-03-06T12:20:23.615Z,24.92
2023-03-06T12:22:57.565Z,24.88
2023-03-06T12:25:34.426Z,26.05
2023-03-06T12:28:11.229Z,21.73
2023-03-06T12:30:41.633Z,23.63
2023-03-06T12:33:17.971Z,21.08
2023-03-06T12:35:48.364Z,26.65
2023-03-06T12:38:16.088Z,16.83
2023-03-06T12:40:50.849Z,24.33
2023-03-06T12:43:30.581Z,33.53
2023-03-06T12:45:59.290Z,23.83
2023-03-06T12:48:27.474Z,25.25
2023-03-06T12:50:54.998Z,25.02
2023-03-06T12:53:27.129Z,21.27
2023-03-06T12:55:54.631Z,22.92
2023-03-06T12:58:31.241Z,28.92
2023-03-06T13:01:19.884Z,22.90
2023-03-06T13:04:06.310Z,28.00
2023-03-06T13:06:54.101Z,21.88
2023-03-06T13:09:27.397Z,19.98
2023-03-06T13:12:09.981Z,27.60
2023-03-06T13:14:39.633Z,21.48
2023-03-06T13:17:25.186Z,22.15
2023-03-06T13:20:11.759Z,21.20
2023-03-06T13:22:39.455Z,23.75
2023-03-06T13:25:19.270Z,18.83
2023-03-06T13:27:53.008Z,24.92
2023-03-06T13:30:35.913Z,18.02
2023-03-06T13:33:03.742Z,21.13
2023-03-06T13:35:32.080Z,18.65
2023-03-06T13:38:00.093Z,19.25
2023-03-06T13:40:28.858Z,23.33
2023-03-06T13:43:08.730Z,22.48
2023-03-06T13:45:43.188Z,22.55
2023-03-06T13:48:43.809Z,26.38
2023-03-06T13:51:24.241Z,21.77
2023-03-06T13:54:10.738Z,20.95
2023-03-06T13:56:48.811Z,22.20
2023-03-06T13:59:25.429Z,24.33
2023-03-06T14:01:58.842Z,23.23
2023-03-06T14:04:34.297Z,22.10
2023-03-06T14:07:04.400Z,22.08
2023-03-06T14:09:42.975Z,21.08
2023-03-06T14:12:13.660Z,23.75
2023-03-06T14:14:44.857Z,24.50
2023-03-06T14:17:16.306Z,23.35
2023-03-06T14:19:43.820Z,18.73
2023-03-06T14:22:16.577Z,22.50
2023-03-06T14:24:45.884Z,20.73
2023-03-06T14:27:18.582Z,25.30
2023-03-06T14:29:48.556Z,20.40
2023-03-06T14:32:19.547Z,25.02
2023-03-06T14:34:47.150Z,26.92
2023-03-06T14:37:21.980Z,17.45
2023-03-06T14:39:49.631Z,22.00
2023-03-06T14:42:26.658Z,25.88
2023-03-06T14:45:06.373Z,20.88
2023-03-06T14:47:34.633Z,21.65
2023-03-06T14:52:29.655Z,18.25
2023-03-06T14:54:57.142Z,20.83
2023-03-06T14:57:24.671Z,22.90
2023-03-06T14:59:56.989Z,23.88
2023-03-06T15:02:25.286Z,19.48
2023-03-06T15:07:22.514Z,16.73
2023-03-06T15:09:50.715Z,20.95
2023-03-06T15:12:21.174Z,19.88
2023-03-06T15:15:03.772Z,21.55
2023-03-06T15:17:32.413Z,18.70
2023-03-06T15:20:00.525Z,17.65
2023-03-06T15:22:43.474Z,20.08
2023-03-06T15:25:32.395Z,19.45
2023-03-06T15:28:03.069Z,16.50
2023-03-06T15:30:32.293Z,18.35
2023-03-06T15:33:18.728Z,17.95
2023-03-06T15:36:02.437Z,22.45
2023-03-06T15:38:41.697Z,19.85
2023-03-06T15:41:27.201Z,19.92
2023-03-06T15:43:54.748Z,21.42
2023-03-06T15:46:22.294Z,16.42
2023-03-06T15:48:56.624Z,17.88
2023-03-06T15:51:24.197Z,18.55
2023-03-06T15:53:54.956Z,17.00
2023-03-06T15:56:25.348Z,16.42
2023-03-06T15:58:52.936Z,21.25
2023-03-06T16:01:20.457Z,15.80
2023-03-06T16:03:48.073Z,16.38
2023-03-06T16:06:16.613Z,20.35
2023-03-06T16:08:44.346Z,13.35
2023-03-06T16:11:17.192Z,30.48
2023-03-06T16:13:45.041Z,14.68
2023-03-06T16:16:16.265Z,16.63
2023-03-06T16:18:43.825Z,15.00
2023-03-06T16:21:11.392Z,22.75
2023-03-06T16:23:39.140Z,14.25
2023-03-06T16:26:19.478Z,13.85
2023-03-06T16:28:47.064Z,16.70
2023-03-06T16:31:14.784Z,18.13
2023-03-06T16:33:42.351Z,14.00
2023-03-06T16:36:19.895Z,14.32
2023-03-06T16:38:48.061Z,12.65
2023-03-06T16:41:16.050Z,11.50
2023-03-06T16:43:43.677Z,17.33
2023-03-06T16:46:15.714Z,12.95
2023-03-06T16:48:43.344Z,17.70
2023-03-06T16:51:14.171Z,20.85
2023-03-06T16:53:41.722Z,12.80
2023-03-06T16:56:12.699Z,13.93
2023-03-06T16:58:40.393Z,14.45
2023-03-06T17:01:08.313Z,22.30
2023-03-06T17:03:36.352Z,20.15
2023-03-06T17:06:04.330Z,17.52
2023-03-06T17:08:31.869Z,18.60
2023-03-06T17:10:59.448Z,12.07
2023-03-06T17:13:26.989Z,12.77
2023-03-06T17:15:59.321Z,17.50
2023-03-06T17:18:27.252Z,14.18
2023-03-06T17:20:54.875Z,12.90
2023-03-06T17:23:25.852Z,13.93
2023-03-06T17:25:54.001Z,17.90
2023-03-06T17:28:21.506Z,12.98
2023-03-06T17:30:49.026Z,9.98
2023-03-06T17:33:16.647Z,15.32
2023-03-06T17:35:44.191Z,16.63
2023-03-06T17:38:11.780Z,18.02
2023-03-06T17:40:39.280Z,16.85
2023-03-06T17:43:06.790Z,13.20
2023-03-06T17:45:36.280Z,15.98
2023-03-06T17:48:03.858Z,17.23
2023-03-06T17:50:31.412Z,15.45
2023-03-06T17:52:58.903Z,17.17
2023-03-06T17:55:27.969Z,16.48
2023-03-06T17:57:55.452Z,19.05
2023-03-06T18:00:23.235Z,13.75
2023-03-06T18:02:50.737Z,11.15
2023-03-06T18:05:20.425Z,19.33
2023-03-06T18:07:47.972Z,19.65
2023-03-06T18:10:15.599Z,20.55
2023-03-06T18:12:43.277Z,16.90
2023-03-06T18:15:10.862Z,21.67
2023-03-06T18:17:38.600Z,15.15
2023-03-06T18:20:06.604Z,18.58
2023-03-06T18:22:34.202Z,21.95
2023-03-06T18:25:01.733Z,21.92
2023-03-06T18:27:29.265Z,16.63
2023-03-06T18:29:56.767Z,14.70
2023-03-06T18:32:24.428Z,18.17
2023-03-06T18:34:52.017Z,17.50
2023-03-06T18:37:19.557Z,15.45
2023-03-06T18:39:47.166Z,14.02
2023-03-06T18:42:14.713Z,18.83
2023-03-06T18:44:43.878Z,20.10
2023-03-06T18:47:11.402Z,20.73
2023-03-06T18:49:40.589Z,17.05
2023-03-06T18:52:08.764Z,19.08
2023-03-06T18:54:36.381Z,10.95
2023-03-06T18:57:03.974Z,14.48
2023-03-06T18:59:31.527Z,19.38
2023-03-06T19:01:59.165Z,21.50
2023-03-06T19:04:26.943Z,18.80
2023-03-06T19:06:54.900Z,18.83
2023-03-06T19:09:22.581Z,15.98
2023-03-06T19:11:50.099Z,20.23
2023-03-06T19:14:17.637Z,14.25
2023-03-06T19:16:45.288Z,19.00
2023-03-06T19:19:12.932Z,11.15
2023-03-06T19:21:40.454Z,18.95
2023-03-06T19:24:13.191Z,13.88
2023-03-06T19:26:41.564Z,15.30
2023-03-06T19:31:36.524Z,17.17
2023-03-06T19:34:04.057Z,17.90
2023-03-06T19:36:33.988Z,11.68
2023-03-06T19:39:02.512Z,15.43
2023-03-06T19:41:30.166Z,19.05
2023-03-06T19:43:58.781Z,14.30
2023-03-06T19:46:26.957Z,16.98
2023-03-06T19:48:56.125Z,20.58
2023-03-06T19:51:23.794Z,19.48
2023-03-06T19:53:51.388Z,18.55
2023-03-06T19:56:20.232Z,17.80
2023-03-06T19:58:47.838Z,16.55
2023-03-06T20:01:16.455Z,16.90
2023-03-06T20:03:44.220Z,21.48
2023-03-06T20:06:13.161Z,16.02
2023-03-06T20:08:40.745Z,18.63
2023-03-06T20:11:14.860Z,26.55
2023-03-06T20:13:47.225Z,20.33
2023-03-06T20:16:15.698Z,19.38
2023-03-06T20:18:43.398Z,23.75
2023-03-06T20:21:10.965Z,19.50
2023-03-06T20:23:38.517Z,19.23
2023-03-06T20:26:07.032Z,20.55
2023-03-06T20:28:35.243Z,20.02
2023-03-06T20:31:06.930Z,18.95
2023-03-06T20:33:34.621Z,19.05
2023-03-06T20:36:02.190Z,18.00
2023-03-06T20:38:29.784Z,16.30
2023-03-06T20:40:58.333Z,16.10
2023-03-06T20:43:25.900Z,17.98
2023-03-06T20:45:57.060Z,15.02
2023-03-06T20:48:24.621Z,17.23
2023-03-06T20:51:02.191Z,12.80
2023-03-06T20:53:29.843Z,20.27
2023-03-06T20:55:57.429Z,13.55
2023-03-06T20:58:28.490Z,20.00
2023-03-06T21:00:57.077Z,15.20
2023-03-06T21:03:24.851Z,16.35
2023-03-06T21:05:52.358Z,15.68
2023-03-06T21:08:19.859Z,15.93
2023-03-06T21:10:47.358Z,15.10
2023-03-06T21:13:14.863Z,18.15
2023-03-06T21:15:42.640Z,15.05
2023-03-06T21:18:10.366Z,15.88
2023-03-06T21:20:41.201Z,16.95
2023-03-06T21:23:09.077Z,15.07
2023-03-06T21:25:36.643Z,19.17
2023-03-06T21:28:04.173Z,17.33
2023-03-06T21:30:31.743Z,14.93
2023-03-06T21:32:59.277Z,17.15
2023-03-06T21:35:26.862Z,14.98
2023-03-06T21:37:54.427Z,19.48
2023-03-06T21:40:22.030Z,15.32
2023-03-06T21:42:49.552Z,19.83
2023-03-06T21:45:17.071Z,21.58
2023-03-06T21:47:44.578Z,19.23
2023-03-06T21:50:12.487Z,20.10
2023-03-06T21:52:40.194Z,19.33
2023-03-06T21:55:08.308Z,18.38
2023-03-06T21:57:35.851Z,17.67
2023-03-06T22:00:08.253Z,18.45
2023-03-06T22:02:37.957Z,20.20
2023-03-06T22:05:06.043Z,20.08
2023-03-06T22:07:37.132Z,19.27
2023-03-06T22:10:09.240Z,15.10
2023-03-06T22:12:37.161Z,20.10
2023-03-06T22:15:04.951Z,17.05
2023-03-06T22:17:32.701Z,16.83
2023-03-06T22:20:00.306Z,21.17
2023-03-06T22:22:27.850Z,16.73
2023-03-06T22:24:55.394Z,20.63
2023-03-06T22:27:22.962Z,12.30
2023-03-06T22:29:50.512Z,19.50
2023-03-06T22:32:18.111Z,16.80
2023-03-06T22:34:45.652Z,20.33
2023-03-06T22:37:13.224Z,14.98
2023-03-06T22:39:40.851Z,15.02
2023-03-06T22:42:08.368Z,21.40
2023-03-06T22:44:35.894Z,19.17
2023-03-06T22:47:03.392Z,19.60
2023-03-06T22:49:30.943Z,22.13
2023-03-06T22:51:58.449Z,19.77
2023-03-06T22:54:25.990Z,12.02
2023-03-06T22:56:53.532Z,22.40
2023-03-06T22:59:21.084Z,20.55
2023-03-06T23:01:48.596Z,21.83
2023-03-06T23:04:16.303Z,13.90
2023-03-06T23:06:44.572Z,18.88
2023-03-06T23:09:20.564Z,20.70
2023-03-06T23:12:08.880Z,17.65
2023-03-06T23:14:55.121Z,17.25
2023-03-06T23:17:41.393Z,21.98
2023-03-06T23:20:27.491Z,19.90
2023-03-06T23:23:14.192Z,18.55
2023-03-06T23:25:41.812Z,14.80
2023-03-06T23:28:09.356Z,21.83
2023-03-06T23:30:38.407Z,22.50
2023-03-06T23:33:05.977Z,23.45
2023-03-06T23:35:34.192Z,17.40
2023-03-06T23:40:31.105Z,17.48
2023-03-06T23:42:58.737Z,17.52
2023-03-06T23:45:26.317Z,20.13
2023-03-06T23:47:53.841Z,20.95
2023-03-06T23:50:22.900Z,18.33
2023-03-06T23:52:53.897Z,18.65
2023-03-06T23:55:21.467Z,19.63
2023-03-06T23:57:48.995Z,20.08
